Time;durP1;ratioP1;P1;durP2;ratioP2;P2;SDS_P1;SDS_P2;PMS_P1;PMS_P2;Temp;Humidity;BMP_temperature;BMP_pressure;BME280_temperature;BME280_humidity;BME280_pressure;Samples;Min_cycle;Max_cycle;Signal;HPM_P1;HPM_P2
2024/01/08 00:02:07;;;;;;;2.17;1.87;;;;;;;;;;5041169;28;20204;-70
2024/01/08 00:04:34;;;;;;;2.70;2.37;;;;;;;;;;5042431;28;20210;-71
2024/01/08 00:07:01;;;;;;;2.70;2.30;;;;;;;;;;5044764;28;20227;-69
2024/01/08 00:09:30;;;;;;;3.07;2.30;;;;;;;;;;5041176;28;20201;-69
2024/01/08 00:11:57;;;;;;;2.30;1.70;;;;;;;;;;5046629;28;20296;-70
2024/01/08 00:14:25;;;;;;;3.37;2.20;;;;;;;;;;5045219;28;20207;-69
2024/01/08 00:16:52;;;;;;;2.50;2.03;;;;;;;;;;5042090;28;20200;-70
2024/01/08 00:19:19;;;;;;;2.20;2.00;;;;;;;;;;5043252;28;20227;-68
2024/01/08 00:21:46;;;;;;;2.30;2.10;;;;;;;;;;5047582;28;20217;-70
2024/01/08 00:24:13;;;;;;;2.90;2.10;;;;;;;;;;5041648;28;20199;-71
2024/01/08 00:26:41;;;;;;;3.73;2.10;;;;;;;;;;5041622;28;21200;-70
2024/01/08 00:29:08;;;;;;;2.33;1.87;;;;;;;;;;5043224;28;20224;-70
2024/01/08 00:31:36;;;;;;;1.80;1.70;;;;;;;;;;5041020;28;20222;-70
2024/01/08 00:34:03;;;;;;;2.30;1.93;;;;;;;;;;5043236;28;20207;-69
2024/01/08 00:36:30;;;;;;;3.20;2.10;;;;;;;;;;5037387;28;20245;-69
2024/01/08 00:38:57;;;;;;;2.47;2.00;;;;;;;;;;5042786;28;20341;-62
2024/01/08 00:41:24;;;;;;;2.93;1.90;;;;;;;;;;5043487;28;20203;-63
2024/01/08 00:43:53;;;;;;;2.80;1.87;;;;;;;;;;5046844;28;20215;-64
2024/01/08 00:46:20;;;;;;;2.27;1.80;;;;;;;;;;5038101;28;20250;-63
2024/01/08 00:48:47;;;;;;;1.97;1.77;;;;;;;;;;5042671;28;20204;-65
2024/01/08 00:51:14;;;;;;;2.17;1.80;;;;;;;;;;5035218;28;20207;-63
2024/01/08 00:53:41;;;;;;;3.07;2.30;;;;;;;;;;5039762;28;20200;-63
2024/01/08 00:56:08;;;;;;;2.50;1.90;;;;;;;;;;5042912;28;20210;-63
2024/01/08 00:58:41;;;;;;;3.93;2.10;;;;;;;;;;5038035;28;20207;-62
2024/01/08 01:01:10;;;;;;;2.13;1.93;;;;;;;;;;5036225;28;20220;-64
2024/01/08 01:03:37;;;;;;;2.47;1.77;;;;;;;;;;5043888;28;20211;-63
2024/01/08 01:06:04;;;;;;;2.63;2.30;;;;;;;;;;5042042;28;20199;-63
2024/01/08 01:08:31;;;;;;;1.80;1.70;;;;;;;;;;5041555;28;20211;-64
2024/01/08 01:10:58;;;;;;;2.23;1.80;;;;;;;;;;5045314;28;20207;-64
2024/01/08 01:13:25;;;;;;;2.93;1.90;;;;;;;;;;5041279;28;20214;-64
2024/01/08 01:15:53;;;;;;;1.93;1.73;;;;;;;;;;5046943;28;20298;-63
2024/01/08 01:18:21;;;;;;;1.87;1.70;;;;;;;;;;5039264;28;20385;-62
2024/01/08 01:20:48;;;;;;;2.03;1.93;;;;;;;;;;5043684;28;20223;-63
2024/01/08 01:23:16;;;;;;;1.73;1.60;;;;;;;;;;5042565;28;20200;-63
2024/01/08 01:25:43;;;;;;;2.30;1.70;;;;;;;;;;5046576;28;20214;-63
2024/01/08 01:28:10;;;;;;;2.20;1.90;;;;;;;;;;5040516;28;20204;-64
2024/01/08 01:30:37;;;;;;;2.67;1.70;;;;;;;;;;5040446;28;20206;-64
2024/01/08 01:33:04;;;;;;;1.93;1.77;;;;;;;;;;5041363;28;20210;-63
2024/01/08 01:35:33;;;;;;;1.70;1.60;;;;;;;;;;5044957;28;20196;-62
2024/01/08 01:38:00;;;;;;;1.67;1.57;;;;;;;;;;5044623;28;20228;-63
2024/01/08 01:40:27;;;;;;;1.70;1.60;;;;;;;;;;5038351;28;20228;-63
2024/01/08 01:42:55;;;;;;;2.37;1.90;;;;;;;;;;5040062;28;20209;-63
2024/01/08 01:45:22;;;;;;;1.90;1.70;;;;;;;;;;5042501;28;20214;-64
2024/01/08 01:47:49;;;;;;;1.47;1.37;;;;;;;;;;5047768;28;20215;-63
2024/01/08 01:50:17;;;;;;;1.60;1.50;;;;;;;;;;5045403;28;20199;-70
2024/01/08 01:52:45;;;;;;;1.63;1.53;;;;;;;;;;5040354;28;20208;-69
2024/01/08 01:55:13;;;;;;;2.33;1.53;;;;;;;;;;5046104;28;20211;-71
2024/01/08 01:57:40;;;;;;;1.93;1.83;;;;;;;;;;5050106;28;20199;-70
2024/01/08 02:00:08;;;;;;;1.90;1.80;;;;;;;;;;5038670;28;20238;-70
2024/01/08 02:02:35;;;;;;;2.30;1.80;;;;;;;;;;5046482;28;20526;-69
2024/01/08 02:05:03;;;;;;;1.73;1.50;;;;;;;;;;5038098;28;20206;-67
2024/01/08 02:07:30;;;;;;;2.23;1.90;;;;;;;;;;5046275;28;20271;-69
2024/01/08 02:09:59;;;;;;;1.87;1.70;;;;;;;;;;5044867;28;20215;-67
2024/01/08 02:12:27;;;;;;;2.73;1.97;;;;;;;;;;5042915;28;20222;-70
2024/01/08 02:14:54;;;;;;;1.70;1.60;;;;;;;;;;5039474;28;20210;-71
2024/01/08 02:17:21;;;;;;;1.60;1.50;;;;;;;;;;5041138;28;20196;-68
2024/01/08 02:19:48;;;;;;;1.93;1.73;;;;;;;;;;5043529;28;20226;-68
2024/01/08 02:22:15;;;;;;;1.73;1.60;;;;;;;;;;5042641;28;20199;-69
2024/01/08 02:24:44;;;;;;;1.90;1.80;;;;;;;;;;5040355;28;20401;-70
2024/01/08 02:27:11;;;;;;;1.90;1.70;;;;;;;;;;5042375;28;20212;-68
2024/01/08 02:29:38;;;;;;;2.73;1.70;;;;;;;;;;5041808;28;20211;-70
2024/01/08 02:32:06;;;;;;;1.60;1.50;;;;;;;;;;5038433;28;20204;-69
2024/01/08 02:34:33;;;;;;;1.90;1.70;;;;;;;;;;5041455;28;20207;-68
2024/01/08 02:37:00;;;;;;;1.73;1.60;;;;;;;;;;5043482;28;20199;-69
2024/01/08 02:39:27;;;;;;;2.33;1.70;;;;;;;;;;5039553;28;20271;-69
2024/01/08 02:41:56;;;;;;;2.00;1.80;;;;;;;;;;5038920;28;20227;-69
2024/01/08 02:44:23;;;;;;;1.70;1.60;;;;;;;;;;5043702;28;20214;-70
2024/01/08 02:46:50;;;;;;;1.63;1.53;;;;;;;;;;5039072;28;20204;-70
2024/01/08 02:49:17;;;;;;;2.00;1.63;;;;;;;;;;5044851;28;20211;-69
2024/01/08 02:51:44;;;;;;;1.87;1.50;;;;;;;;;;5038984;28;20220;-68
2024/01/08 02:54:11;;;;;;;1.97;1.73;;;;;;;;;;5041423;28;20207;-69
2024/01/08 02:56:38;;;;;;;2.27;1.80;;;;;;;;;;5039151;28;22018;-69
2024/01/08 02:59:07;;;;;;;1.83;1.60;;;;;;;;;;5045943;28;20209;-64
2024/01/08 03:01:34;;;;;;;1.70;1.60;;;;;;;;;;5045773;28;20227;-63
2024/01/08 03:04:01;;;;;;;1.60;1.50;;;;;;;;;;5039476;28;20338;-64
2024/01/08 03:06:28;;;;;;;1.40;1.33;;;;;;;;;;5042485;28;20213;-64
2024/01/08 03:08:55;;;;;;;2.23;1.70;;;;;;;;;;5040563;28;20213;-65
2024/01/08 03:11:22;;;;;;;1.90;1.70;;;;;;;;;;5039836;28;20200;-63
2024/01/08 03:13:50;;;;;;;2.10;1.80;;;;;;;;;;5039358;28;20207;-64
2024/01/08 03:16:19;;;;;;;2.27;1.60;;;;;;;;;;5037754;28;20234;-63
2024/01/08 03:18:46;;;;;;;1.40;1.30;;;;;;;;;;5040495;28;20199;-65
2024/01/08 03:21:13;;;;;;;1.53;1.43;;;;;;;;;;5040205;28;20339;-64
2024/01/08 03:23:41;;;;;;;1.73;1.50;;;;;;;;;;5040093;28;20210;-64
2024/01/08 03:26:08;;;;;;;1.53;1.43;;;;;;;;;;5047341;28;20211;-63
2024/01/08 03:28:35;;;;;;;1.60;1.50;;;;;;;;;;5041108;28;20207;-64
2024/01/08 03:31:02;;;;;;;1.50;1.40;;;;;;;;;;5040552;28;20239;-65
2024/01/08 03:33:31;;;;;;;1.60;1.50;;;;;;;;;;5041204;28;20200;-64
2024/01/08 03:35:58;;;;;;;1.60;1.50;;;;;;;;;;5046794;28;20200;-64
2024/01/08 03:38:25;;;;;;;1.57;1.47;;;;;;;;;;5040149;28;20238;-63
2024/01/08 03:40:52;;;;;;;2.40;2.03;;;;;;;;;;5039532;28;20725;-63
2024/01/08 03:43:19;;;;;;;1.17;1.17;;;;;;;;;;5042034;28;20207;-63
2024/01/08 03:45:46;;;;;;;1.40;1.17;;;;;;;;;;5038551;28;20215;-64
2024/01/08 03:48:13;;;;;;;1.50;1.40;;;;;;;;;;5038342;28;20215;-64
2024/01/08 03:50:42;;;;;;;1.50;1.40;;;;;;;;;;5040196;28;20209;-64
2024/01/08 03:53:09;;;;;;;2.30;1.30;;;;;;;;;;5039492;28;20204;-63
2024/01/08 03:55:37;;;;;;;1.40;1.30;;;;;;;;;;5043050;28;20209;-63
2024/01/08 03:58:05;;;;;;;1.97;1.50;;;;;;;;;;5045602;28;20212;-63
2024/01/08 04:00:32;;;;;;;1.80;1.53;;;;;;;;;;5042811;28;20223;-63
2024/01/08 04:02:59;;;;;;;2.03;1.40;;;;;;;;;;5044496;28;20211;-64
2024/01/08 04:05:26;;;;;;;1.30;1.20;;;;;;;;;;5043327;28;20210;-63
2024/01/08 04:07:54;;;;;;;1.60;1.50;;;;;;;;;;5040650;28;20203;-64
2024/01/08 04:10:22;;;;;;;1.73;1.30;;;;;;;;;;5041152;28;20211;-63
2024/01/08 04:12:50;;;;;;;2.43;1.40;;;;;;;;;;5044013;28;20295;-63
2024/01/08 04:15:17;;;;;;;1.70;1.20;;;;;;;;;;5041320;28;20216;-63
2024/01/08 04:17:44;;;;;;;1.50;1.40;;;;;;;;;;5041424;28;20207;-64
2024/01/08 04:20:11;;;;;;;1.87;1.77;;;;;;;;;;5040004;28;20201;-64
2024/01/08 04:22:38;;;;;;;2.10;1.30;;;;;;;;;;5040513;28;20243;-63
2024/01/08 04:25:07;;;;;;;1.40;1.30;;;;;;;;;;5041256;28;20207;-63
2024/01/08 04:27:34;;;;;;;1.20;1.10;;;;;;;;;;5042270;28;20207;-63
2024/01/08 04:30:01;;;;;;;1.20;1.20;;;;;;;;;;5040750;28;20205;-62
2024/01/08 04:32:28;;;;;;;1.10;1.10;;;;;;;;;;5043845;28;20283;-64
2024/01/08 04:34:55;;;;;;;1.23;1.13;;;;;;;;;;5038118;28;20222;-64
2024/01/08 04:37:23;;;;;;;1.50;1.40;;;;;;;;;;5043943;28;20202;-64
2024/01/08 04:39:50;;;;;;;1.10;1.00;;;;;;;;;;5046353;28;20215;-63
2024/01/08 04:42:18;;;;;;;0.93;0.90;;;;;;;;;;5042405;28;20235;-65
2024/01/08 04:44:45;;;;;;;1.37;1.20;;;;;;;;;;5041784;28;20215;-65
2024/01/08 04:47:12;;;;;;;1.20;1.10;;;;;;;;;;5045254;28;20255;-63
2024/01/08 04:49:40;;;;;;;1.83;1.17;;;;;;;;;;5038777;28;20209;-64
2024/01/08 04:52:07;;;;;;;1.07;1.07;;;;;;;;;;5049908;28;20200;-63
2024/01/08 04:54:34;;;;;;;1.30;1.13;;;;;;;;;;5048892;28;20205;-63
2024/01/08 04:57:01;;;;;;;1.10;1.10;;;;;;;;;;5043881;28;20207;-63
2024/01/08 04:59:29;;;;;;;1.03;1.03;;;;;;;;;;5043598;28;20204;-63
2024/01/08 05:01:56;;;;;;;1.00;1.00;;;;;;;;;;5046439;28;20231;-63
2024/01/08 05:04:24;;;;;;;1.97;1.10;;;;;;;;;;5036118;28;20220;-64
2024/01/08 05:06:51;;;;;;;1.30;1.20;;;;;;;;;;5044300;28;20204;-65
2024/01/08 05:09:18;;;;;;;1.17;1.10;;;;;;;;;;5041731;28;20203;-63
2024/01/08 05:11:45;;;;;;;1.20;1.00;;;;;;;;;;5049301;28;20199;-64
2024/01/08 05:14:12;;;;;;;1.20;1.10;;;;;;;;;;5041051;28;20203;-63
2024/01/08 05:16:40;;;;;;;1.17;1.07;;;;;;;;;;5043343;28;20202;-63
2024/01/08 05:19:07;;;;;;;1.40;1.30;;;;;;;;;;5046223;28;20203;-64
2024/01/08 05:21:35;;;;;;;1.33;1.23;;;;;;;;;;5044295;28;20234;-63
2024/01/08 05:24:02;;;;;;;1.23;1.13;;;;;;;;;;5051616;28;20212;-64
2024/01/08 05:26:29;;;;;;;1.13;1.13;;;;;;;;;;5044204;28;20196;-63
2024/01/08 05:28:56;;;;;;;1.27;1.17;;;;;;;;;;5046852;28;20219;-64
2024/01/08 05:31:23;;;;;;;1.13;1.10;;;;;;;;;;5043420;28;20209;-63
2024/01/08 05:33:52;;;;;;;2.83;1.80;;;;;;;;;;5048721;28;20207;-63
2024/01/08 05:36:19;;;;;;;1.70;1.60;;;;;;;;;;5046800;28;20213;-63
2024/01/08 05:38:46;;;;;;;2.10;1.60;;;;;;;;;;5044054;28;20227;-64
2024/01/08 05:41:13;;;;;;;1.93;1.50;;;;;;;;;;5043058;28;20230;-64
2024/01/08 05:43:40;;;;;;;1.33;1.23;;;;;;;;;;5045529;28;20215;-64
2024/01/08 05:46:07;;;;;;;1.37;1.27;;;;;;;;;;5047783;28;20204;-64
2024/01/08 05:48:37;;;;;;;1.17;1.17;;;;;;;;;;5047936;28;20207;-63
2024/01/08 05:51:06;;;;;;;1.23;1.10;;;;;;;;;;5043597;28;20197;-65
2024/01/08 05:53:33;;;;;;;1.43;1.33;;;;;;;;;;5045416;28;20202;-63
2024/01/08 05:56:00;;;;;;;1.40;1.20;;;;;;;;;;5042656;28;20214;-63
2024/01/08 05:58:27;;;;;;;1.43;1.10;;;;;;;;;;5045199;28;20211;-64
2024/01/08 06:00:54;;;;;;;1.37;1.27;;;;;;;;;;5044828;28;20207;-64
2024/01/08 06:03:22;;;;;;;2.07;1.87;;;;;;;;;;5043237;28;20216;-65
2024/01/08 06:05:49;;;;;;;2.60;2.30;;;;;;;;;;5044173;28;20268;-64
2024/01/08 06:08:18;;;;;;;3.33;2.40;;;;;;;;;;5042718;28;20219;-64
2024/01/08 06:10:46;;;;;;;1.53;1.40;;;;;;;;;;5045880;28;20204;-64
2024/01/08 06:13:14;;;;;;;1.70;1.60;;;;;;;;;;5043220;28;20286;-64
2024/01/08 06:15:41;;;;;;;1.30;1.20;;;;;;;;;;5048370;28;20306;-65
2024/01/08 06:18:08;;;;;;;1.40;1.30;;;;;;;;;;5046952;28;20241;-64
2024/01/08 06:20:35;;;;;;;1.23;1.23;;;;;;;;;;5041588;28;20213;-64
2024/01/08 06:23:02;;;;;;;1.63;1.47;;;;;;;;;;5033848;28;20233;-64
2024/01/08 06:25:31;;;;;;;1.60;1.50;;;;;;;;;;5034731;28;20210;-64
2024/01/08 06:27:58;;;;;;;1.40;1.30;;;;;;;;;;5042913;28;20203;-64
2024/01/08 06:30:25;;;;;;;1.30;1.20;;;;;;;;;;5048649;28;20204;-71
2024/01/08 06:32:52;;;;;;;3.33;1.20;;;;;;;;;;5044136;28;20217;-69
2024/01/08 06:35:19;;;;;;;1.30;1.20;;;;;;;;;;5045960;28;20207;-69
2024/01/08 06:37:46;;;;;;;1.37;1.27;;;;;;;;;;5044531;28;20241;-69
2024/01/08 06:40:13;;;;;;;1.50;1.40;;;;;;;;;;5030089;28;20196;-68
2024/01/08 06:42:42;;;;;;;1.33;1.23;;;;;;;;;;5036757;28;20230;-68
2024/01/08 06:45:10;;;;;;;1.43;1.33;;;;;;;;;;5034228;28;20217;-68
2024/01/08 06:47:37;;;;;;;2.50;1.30;;;;;;;;;;5030795;28;20207;-69
2024/01/08 06:50:05;;;;;;;1.50;1.40;;;;;;;;;;5036059;28;20233;-70
2024/01/08 06:52:32;;;;;;;1.40;1.30;;;;;;;;;;5052867;28;20272;-68
2024/01/08 06:54:59;;;;;;;3.00;2.60;;;;;;;;;;5041368;28;20206;-69
2024/01/08 06:57:26;;;;;;;7.90;5.37;;;;;;;;;;5046909;28;20293;-70
2024/01/08 06:59:54;;;;;;;7.30;4.17;;;;;;;;;;5042369;28;20216;-70
2024/01/08 07:02:22;;;;;;;3.90;2.57;;;;;;;;;;5042667;28;20238;-68
2024/01/08 07:04:49;;;;;;;1.87;1.77;;;;;;;;;;5044914;28;20206;-70
2024/01/08 07:07:16;;;;;;;1.50;1.40;;;;;;;;;;5035183;28;20200;-68
2024/01/08 07:09:43;;;;;;;1.70;1.40;;;;;;;;;;5035147;28;20224;-69
2024/01/08 07:12:10;;;;;;;1.70;1.60;;;;;;;;;;5044690;28;20202;-69
2024/01/08 07:14:39;;;;;;;1.70;1.60;;;;;;;;;;5039187;28;20342;-69
2024/01/08 07:17:08;;;;;;;2.43;1.40;;;;;;;;;;5042908;28;20302;-68
2024/01/08 07:19:35;;;;;;;1.30;1.30;;;;;;;;;;5045578;28;20278;-68
2024/01/08 07:22:02;;;;;;;1.53;1.43;;;;;;;;;;5039762;28;20229;-69
2024/01/08 07:24:29;;;;;;;1.60;1.50;;;;;;;;;;5038532;28;20234;-69
2024/01/08 07:26:57;;;;;;;1.43;1.33;;;;;;;;;;5042852;28;20298;-68
2024/01/08 07:29:24;;;;;;;1.50;1.40;;;;;;;;;;5036448;28;20235;-70
2024/01/08 07:31:52;;;;;;;2.47;1.60;;;;;;;;;;5037256;28;20196;-70
2024/01/08 07:34:20;;;;;;;1.60;1.50;;;;;;;;;;5024074;28;20216;-70
2024/01/08 07:36:47;;;;;;;1.73;1.63;;;;;;;;;;5024824;28;20203;-68
2024/01/08 07:39:15;;;;;;;1.80;1.50;;;;;;;;;;5021617;28;20238;-64
2024/01/08 07:41:43;;;;;;;2.03;1.57;;;;;;;;;;5042917;28;20250;-65
2024/01/08 07:44:10;;;;;;;1.50;1.40;;;;;;;;;;5042815;28;20209;-63
2024/01/08 07:46:37;;;;;;;2.90;1.57;;;;;;;;;;5041026;28;20202;-63
2024/01/08 07:49:04;;;;;;;2.50;2.20;;;;;;;;;;5042110;28;20220;-63
2024/01/08 07:51:33;;;;;;;1.60;1.50;;;;;;;;;;5043713;28;20310;-63
2024/01/08 07:54:00;;;;;;;1.60;1.50;;;;;;;;;;5041752;28;20215;-64
2024/01/08 07:56:27;;;;;;;1.60;1.50;;;;;;;;;;5040567;28;20327;-63
2024/01/08 07:58:54;;;;;;;2.10;1.90;;;;;;;;;;5040788;28;20201;-64
2024/01/08 08:01:21;;;;;;;1.93;1.80;;;;;;;;;;5037215;28;20208;-64
2024/01/08 08:03:50;;;;;;;1.83;1.73;;;;;;;;;;5038748;28;20268;-64
2024/01/08 08:06:17;;;;;;;1.87;1.77;;;;;;;;;;5041104;28;20248;-64
2024/01/08 08:08:45;;;;;;;1.80;1.70;;;;;;;;;;5043718;28;20210;-63
2024/01/08 08:11:13;;;;;;;1.83;1.73;;;;;;;;;;5043742;28;20203;-64
2024/01/08 08:13:40;;;;;;;1.57;1.47;;;;;;;;;;5038860;28;20209;-63
2024/01/08 08:16:09;;;;;;;1.70;1.60;;;;;;;;;;5045111;28;20208;-64
2024/01/08 08:18:39;;;;;;;2.30;2.10;;;;;;;;;;5047143;28;20210;-63
2024/01/08 08:21:06;;;;;;;2.17;1.83;;;;;;;;;;5044044;28;20205;-64
2024/01/08 08:23:33;;;;;;;1.30;1.20;;;;;;;;;;5042194;28;20291;-63
2024/01/08 08:26:02;;;;;;;2.83;2.07;;;;;;;;;;5042516;28;20202;-64
2024/01/08 08:28:29;;;;;;;1.70;1.60;;;;;;;;;;5043786;28;20288;-64
2024/01/08 08:30:57;;;;;;;1.73;1.63;;;;;;;;;;5041800;28;20211;-65
2024/01/08 08:33:24;;;;;;;2.10;2.00;;;;;;;;;;5036672;28;20202;-64
2024/01/08 08:35:51;;;;;;;2.10;1.70;;;;;;;;;;5034333;28;20204;-65
2024/01/08 08:38:18;;;;;;;1.90;1.77;;;;;;;;;;5048122;28;20235;-64
2024/01/08 08:40:45;;;;;;;2.67;2.47;;;;;;;;;;5046876;28;20192;-64
2024/01/08 08:43:14;;;;;;;4.57;3.10;;;;;;;;;;5041674;28;20233;-64
2024/01/08 08:45:41;;;;;;;3.80;2.50;;;;;;;;;;5042540;28;20251;-62
2024/01/08 08:48:09;;;;;;;3.73;2.47;;;;;;;;;;5035474;28;20215;-64
2024/01/08 08:50:37;;;;;;;2.03;1.90;;;;;;;;;;5036321;28;20250;-69
2024/01/08 08:53:04;;;;;;;1.73;1.63;;;;;;;;;;5042561;28;20212;-69
2024/01/08 08:55:31;;;;;;;4.23;2.23;;;;;;;;;;5040493;28;20226;-69
2024/01/08 08:57:58;;;;;;;2.53;1.97;;;;;;;;;;5043118;28;20210;-70
2024/01/08 09:00:27;;;;;;;1.90;1.80;;;;;;;;;;5026686;28;20210;-70
2024/01/08 09:02:56;;;;;;;2.17;1.87;;;;;;;;;;5028295;28;20224;-69
2024/01/08 09:05:23;;;;;;;1.80;1.70;;;;;;;;;;5021871;28;20222;-70
2024/01/08 09:07:50;;;;;;;2.43;2.23;;;;;;;;;;5035593;28;20206;-68
2024/01/08 09:10:17;;;;;;;1.70;1.60;;;;;;;;;;5042666;28;20291;-68
2024/01/08 09:12:45;;;;;;;2.40;2.20;;;;;;;;;;5045310;28;20227;-68
2024/01/08 09:15:12;;;;;;;2.20;2.00;;;;;;;;;;5049893;28;20212;-69
2024/01/08 09:17:41;;;;;;;1.90;1.80;;;;;;;;;;5043781;28;20314;-67
2024/01/08 09:20:09;;;;;;;2.87;2.10;;;;;;;;;;5048472;28;20200;-70
2024/01/08 09:22:37;;;;;;;2.20;2.03;;;;;;;;;;5041056;28;20227;-68
2024/01/08 09:25:04;;;;;;;2.40;2.20;;;;;;;;;;5036794;28;20232;-68
2024/01/08 09:27:31;;;;;;;2.53;2.33;;;;;;;;;;5037246;28;20205;-68
2024/01/08 09:29:59;;;;;;;8.13;4.50;;;;;;;;;;5026424;28;20222;-67
2024/01/08 09:32:26;;;;;;;2.60;2.27;;;;;;;;;;5026028;28;20216;-68
2024/01/08 09:34:54;;;;;;;4.10;2.73;;;;;;;;;;5025263;28;20317;-69
2024/01/08 09:37:21;;;;;;;5.23;3.30;;;;;;;;;;5037547;28;20268;-70
2024/01/08 09:39:48;;;;;;;6.37;4.90;;;;;;;;;;5050871;28;20199;-71
2024/01/08 09:42:16;;;;;;;3.60;3.30;;;;;;;;;;5041800;28;20306;-70
2024/01/08 09:44:47;;;;;;;3.73;3.33;;;;;;;;;;5052051;28;20222;-69
2024/01/08 09:47:14;;;;;;;2.50;2.30;;;;;;;;;;5049468;28;20199;-70
2024/01/08 09:49:42;;;;;;;3.80;3.40;;;;;;;;;;5044255;28;20420;-70
2024/01/08 09:52:14;;;;;;;3.00;2.73;;;;;;;;;;5044704;28;20209;-68
2024/01/08 09:54:42;;;;;;;4.77;2.83;;;;;;;;;;5047846;28;20200;-70
2024/01/08 09:57:09;;;;;;;3.70;3.07;;;;;;;;;;5042299;28;20210;-68
2024/01/08 09:59:37;;;;;;;6.97;4.37;;;;;;;;;;5042327;28;20200;-63
2024/01/08 10:02:05;;;;;;;5.17;4.23;;;;;;;;;;5043513;28;20204;-63
2024/01/08 10:04:32;;;;;;;5.53;4.20;;;;;;;;;;5040624;28;20337;-63
2024/01/08 10:07:06;;;;;;;5.37;4.23;;;;;;;;;;5030422;28;20214;-65
2024/01/08 10:09:34;;;;;;;6.10;5.00;;;;;;;;;;5034307;28;20210;-64
2024/01/08 10:12:02;;;;;;;4.33;3.10;;;;;;;;;;5030719;28;20215;-64
2024/01/08 10:14:29;;;;;;;3.00;2.80;;;;;;;;;;5042980;28;20210;-63
2024/01/08 10:16:56;;;;;;;2.90;2.70;;;;;;;;;;5041101;28;20206;-64
2024/01/08 10:19:24;;;;;;;2.93;2.63;;;;;;;;;;5040977;28;20208;-63
2024/01/08 10:22:07;;;;;;;2.53;2.33;;;;;;;;;;5047620;28;20213;-63
2024/01/08 10:24:35;;;;;;;2.50;2.30;;;;;;;;;;5045040;28;20206;-65
2024/01/08 10:27:03;;;;;;;3.37;2.73;;;;;;;;;;5046454;28;20661;-63
2024/01/08 10:29:30;;;;;;;4.60;3.03;;;;;;;;;;5045918;28;20313;-63
2024/01/08 10:31:58;;;;;;;10.10;4.90;;;;;;;;;;5041438;28;20200;-63
2024/01/08 10:34:26;;;;;;;11.57;4.37;;;;;;;;;;5053468;28;20196;-62
2024/01/08 10:36:53;;;;;;;10.90;3.70;;;;;;;;;;5043581;28;20226;-62
2024/01/08 10:39:22;;;;;;;4.83;3.13;;;;;;;;;;5043957;28;20242;-63
2024/01/08 10:41:50;;;;;;;5.97;3.13;;;;;;;;;;5050583;28;20207;-63
2024/01/08 10:44:18;;;;;;;3.80;3.20;;;;;;;;;;5056191;28;20228;-63
2024/01/08 10:46:47;;;;;;;3.33;2.80;;;;;;;;;;5044088;28;20251;-63
2024/01/08 10:49:19;;;;;;;5.87;3.10;;;;;;;;;;5046605;28;20204;-64
2024/01/08 10:51:48;;;;;;;11.63;4.50;;;;;;;;;;5043893;28;20206;-63
2024/01/08 10:54:18;;;;;;;3.60;2.70;;;;;;;;;;5047189;28;20204;-63
2024/01/08 10:56:47;;;;;;;5.13;3.07;;;;;;;;;;5047350;28;20207;-64
2024/01/08 10:59:22;;;;;;;8.70;5.23;;;;;;;;;;5043294;28;20207;-63
2024/01/08 11:01:50;;;;;;;5.53;4.33;;;;;;;;;;5038339;28;20237;-64
2024/01/08 11:04:17;;;;;;;8.77;5.20;;;;;;;;;;5033555;28;20283;-65
2024/01/08 11:06:47;;;;;;;9.10;4.40;;;;;;;;;;5026316;28;20215;-64
2024/01/08 11:09:25;;;;;;;5.90;3.50;;;;;;;;;;5030624;28;20211;-68
2024/01/08 11:11:52;;;;;;;7.30;3.63;;;;;;;;;;5041318;28;20195;-68
2024/01/08 11:14:20;;;;;;;10.03;4.07;;;;;;;;;;5048310;28;20202;-68
2024/01/08 11:16:48;;;;;;;5.47;3.20;;;;;;;;;;5043013;28;20208;-69
2024/01/08 11:19:27;;;;;;;6.70;4.37;;;;;;;;;;5043363;28;20198;-67
2024/01/08 11:22:10;;;;;;;3.73;3.40;;;;;;;;;;5043368;28;20330;-69
2024/01/08 11:24:37;;;;;;;3.50;2.80;;;;;;;;;;5040392;28;20219;-70
2024/01/08 11:27:04;;;;;;;2.70;2.50;;;;;;;;;;5026159;28;20211;-70
2024/01/08 11:29:34;;;;;;;2.90;2.50;;;;;;;;;;5022776;28;20215;-69
2024/01/08 11:32:25;;;;;;;5.57;3.37;;;;;;;;;;5025504;28;20212;-70
2024/01/08 11:34:57;;;;;;;3.30;3.00;;;;;;;;;;5030947;28;20215;-69
2024/01/08 11:37:34;;;;;;;4.80;3.30;;;;;;;;;;5027380;28;22543;-69
2024/01/08 11:40:02;;;;;;;3.27;2.97;;;;;;;;;;5031232;28;20217;-70
2024/01/08 11:42:30;;;;;;;2.80;2.60;;;;;;;;;;5038126;28;20200;-69
2024/01/08 11:45:00;;;;;;;6.80;3.80;;;;;;;;;;5024875;28;20221;-70
2024/01/08 11:47:27;;;;;;;6.13;4.20;;;;;;;;;;5042522;28;20207;-68
2024/01/08 11:49:54;;;;;;;5.07;3.70;;;;;;;;;;5035719;28;20215;-69
2024/01/08 11:52:21;;;;;;;5.07;3.57;;;;;;;;;;5039248;28;20210;-69
2024/01/08 11:54:52;;;;;;;6.60;4.23;;;;;;;;;;5032289;28;20203;-68
2024/01/08 11:57:19;;;;;;;5.33;3.47;;;;;;;;;;5023150;28;20239;-70
2024/01/08 11:59:47;;;;;;;3.40;3.10;;;;;;;;;;5019788;28;20328;-68
2024/01/08 12:02:16;;;;;;;2.70;2.50;;;;;;;;;;5025556;28;20203;-68
2024/01/08 12:04:43;;;;;;;4.00;3.03;;;;;;;;;;5022776;28;21672;-70
2024/01/08 12:07:12;;;;;;;3.17;2.60;;;;;;;;;;5027112;28;20211;-68
2024/01/08 12:09:39;;;;;;;4.40;3.60;;;;;;;;;;5020788;28;20203;-66
2024/01/08 12:12:07;;;;;;;3.90;2.90;;;;;;;;;;5020573;28;20210;-66
2024/01/08 12:14:34;;;;;;;3.40;2.77;;;;;;;;;;5039755;28;20206;-70
2024/01/08 12:17:02;;;;;;;4.00;3.43;;;;;;;;;;5036573;28;20203;-69
2024/01/08 12:19:41;;;;;;;6.03;4.27;;;;;;;;;;5039110;28;20216;-63
2024/01/08 12:22:10;;;;;;;5.30;4.10;;;;;;;;;;5039672;28;20260;-63
2024/01/08 12:24:37;;;;;;;3.67;3.13;;;;;;;;;;5038023;28;20241;-63
2024/01/08 12:27:05;;;;;;;4.47;3.50;;;;;;;;;;5037058;28;20223;-63
2024/01/08 12:29:32;;;;;;;3.83;2.97;;;;;;;;;;5045320;28;20224;-64
2024/01/08 12:32:00;;;;;;;5.73;3.70;;;;;;;;;;5037352;28;20230;-63
2024/01/08 12:34:29;;;;;;;4.50;3.50;;;;;;;;;;5045097;28;20214;-63
2024/01/08 12:36:58;;;;;;;2.60;2.40;;;;;;;;;;5035562;28;20209;-63
2024/01/08 12:39:25;;;;;;;2.60;2.40;;;;;;;;;;5046344;28;20320;-64
2024/01/08 12:41:57;;;;;;;3.53;3.03;;;;;;;;;;5039134;28;20256;-63
2024/01/08 12:44:25;;;;;;;3.10;2.80;;;;;;;;;;5043668;28;20264;-63
2024/01/08 12:46:52;;;;;;;3.30;2.67;;;;;;;;;;5045607;28;20221;-64
2024/01/08 12:49:19;;;;;;;2.77;2.50;;;;;;;;;;5037121;28;20358;-63
2024/01/08 12:51:46;;;;;;;3.00;2.73;;;;;;;;;;5038497;28;20204;-64
2024/01/08 12:54:15;;;;;;;3.97;3.10;;;;;;;;;;5039073;28;20196;-63
2024/01/08 12:56:42;;;;;;;3.13;2.57;;;;;;;;;;5036160;28;20433;-64
2024/01/08 12:59:14;;;;;;;3.60;2.40;;;;;;;;;;5038294;28;20230;-63
2024/01/08 13:01:42;;;;;;;2.77;2.40;;;;;;;;;;5035442;28;20213;-63
2024/01/08 13:04:10;;;;;;;2.60;2.40;;;;;;;;;;5029705;28;20235;-65
2024/01/08 13:06:37;;;;;;;3.73;2.50;;;;;;;;;;5023325;28;20215;-64
2024/01/08 13:09:07;;;;;;;3.60;2.67;;;;;;;;;;5025771;28;20205;-64
2024/01/08 13:11:35;;;;;;;3.07;2.77;;;;;;;;;;5029719;28;20215;-64
2024/01/08 13:14:04;;;;;;;3.73;2.70;;;;;;;;;;5030748;28;20196;-64
2024/01/08 13:16:31;;;;;;;2.70;2.50;;;;;;;;;;5044405;28;20202;-63
2024/01/08 13:18:58;;;;;;;5.30;3.90;;;;;;;;;;5040542;28;20210;-64
2024/01/08 13:21:25;;;;;;;3.77;3.13;;;;;;;;;;5040138;28;20496;-63
2024/01/08 13:23:52;;;;;;;6.83;4.53;;;;;;;;;;5040693;28;20224;-63
2024/01/08 13:26:20;;;;;;;6.53;4.53;;;;;;;;;;5040522;28;20577;-64
2024/01/08 13:28:48;;;;;;;2.90;2.50;;;;;;;;;;5025732;28;20214;-63
2024/01/08 13:31:15;;;;;;;2.77;2.47;;;;;;;;;;5031129;28;20261;-68
2024/01/08 13:33:43;;;;;;;5.23;3.80;;;;;;;;;;5046463;28;20207;-67
2024/01/08 13:36:10;;;;;;;3.10;2.67;;;;;;;;;;5045006;28;20218;-68
2024/01/08 13:38:38;;;;;;;2.83;2.60;;;;;;;;;;5049418;28;20223;-69
2024/01/08 13:41:05;;;;;;;3.00;2.70;;;;;;;;;;5039163;28;20210;-68
2024/01/08 13:43:33;;;;;;;3.67;2.80;;;;;;;;;;5047208;28;20240;-69
2024/01/08 13:46:01;;;;;;;3.10;2.77;;;;;;;;;;5046443;28;20233;-67
2024/01/08 13:48:28;;;;;;;2.80;2.37;;;;;;;;;;5037046;28;20203;-69
2024/01/08 13:50:56;;;;;;;3.10;2.67;;;;;;;;;;5043484;28;20208;-68
2024/01/08 13:53:23;;;;;;;3.43;3.13;;;;;;;;;;5036893;28;20203;-67
2024/01/08 13:55:54;;;;;;;3.10;2.80;;;;;;;;;;5039884;28;20218;-68
2024/01/08 13:58:21;;;;;;;2.80;2.47;;;;;;;;;;5040657;28;20214;-69
2024/01/08 14:00:48;;;;;;;4.70;3.30;;;;;;;;;;5040454;28;20203;-68
2024/01/08 14:03:17;;;;;;;6.17;4.17;;;;;;;;;;5033225;28;20206;-70
2024/01/08 14:05:45;;;;;;;4.40;3.93;;;;;;;;;;5042320;28;20218;-68
2024/01/08 14:08:12;;;;;;;4.93;4.00;;;;;;;;;;5045058;28;20508;-70
2024/01/08 14:10:39;;;;;;;5.77;4.80;;;;;;;;;;5040321;28;20215;-70
2024/01/08 14:13:06;;;;;;;5.70;5.10;;;;;;;;;;5036321;28;20208;-70
2024/01/08 14:15:33;;;;;;;6.50;5.10;;;;;;;;;;5041296;28;20213;-69
2024/01/08 14:18:00;;;;;;;7.10;5.13;;;;;;;;;;5037206;28;20203;-70
2024/01/08 14:20:29;;;;;;;6.53;5.83;;;;;;;;;;5045276;28;20202;-70
2024/01/08 14:22:56;;;;;;;3.67;3.07;;;;;;;;;;5039792;28;20214;-67
2024/01/08 14:25:23;;;;;;;3.60;2.97;;;;;;;;;;5035641;28;20230;-69
2024/01/08 14:27:51;;;;;;;2.93;2.73;;;;;;;;;;5026139;28;20214;-67
2024/01/08 14:30:18;;;;;;;2.80;2.50;;;;;;;;;;5025019;28;20318;-64
2024/01/08 14:32:46;;;;;;;4.07;2.97;;;;;;;;;;5028024;28;20210;-63
2024/01/08 14:35:13;;;;;;;4.47;3.53;;;;;;;;;;5026818;28;20200;-64
2024/01/08 14:37:41;;;;;;;4.03;3.63;;;;;;;;;;5030905;28;20253;-64
2024/01/08 14:40:11;;;;;;;3.30;2.87;;;;;;;;;;5030521;28;20214;-68
2024/01/08 14:42:38;;;;;;;3.53;3.10;;;;;;;;;;5031987;28;20204;-68
2024/01/08 14:45:06;;;;;;;3.00;2.77;;;;;;;;;;5046191;28;20214;-69
2024/01/08 14:47:33;;;;;;;4.73;3.67;;;;;;;;;;5044056;28;20210;-70